createdAt,value
2018-08-24T00:00:06.032Z,4.53
2018-08-24T00:05:26.726Z,4.20
2018-08-24T00:10:47.478Z,5.37
2018-08-24T00:16:08.145Z,5.33
2018-08-24T00:21:28.866Z,3.63
2018-08-24T00:26:49.644Z,3.50
2018-08-24T00:32:10.172Z,3.30
2018-08-24T00:37:31.819Z,3.90
2018-08-24T00:42:52.635Z,3.83
2018-08-24T00:48:13.448Z,3.67
2018-08-24T00:53:34.242Z,3.97
2018-08-24T00:58:55.046Z,4.03
2018-08-24T01:04:19.798Z,4.00
2018-08-24T01:09:41.163Z,4.37
2018-08-24T01:15:05.894Z,3.67
2018-08-24T01:20:31.754Z,5.37
2018-08-24T01:25:52.360Z,3.10
2018-08-24T01:31:13.403Z,6.60
2018-08-24T01:36:34.109Z,3.03
2018-08-24T01:41:54.974Z,4.17
2018-08-24T01:47:15.758Z,4.90
2018-08-24T01:52:36.298Z,4.53
2018-08-24T01:57:57.719Z,4.60
2018-08-24T02:03:18.300Z,3.90
2018-08-24T02:08:39.266Z,4.67
2018-08-24T02:14:04.729Z,3.50
2018-08-24T02:19:30.459Z,3.33
2018-08-24T02:24:51.488Z,3.47
2018-08-24T02:30:12.106Z,4.20
2018-08-24T02:35:33.003Z,4.03
2018-08-24T02:40:53.717Z,4.97
2018-08-24T02:46:14.387Z,3.97
2018-08-24T02:51:35.270Z,3.93
2018-08-24T02:56:55.847Z,4.63
2018-08-24T03:02:16.409Z,3.60
2018-08-24T03:07:37.242Z,3.50
2018-08-24T03:12:57.974Z,2.73
2018-08-24T03:18:18.513Z,3.40
2018-08-24T03:23:39.116Z,3.67
2018-08-24T03:28:59.754Z,4.00
2018-08-24T03:34:20.637Z,3.07
2018-08-24T03:39:41.364Z,3.53
2018-08-24T03:45:02.037Z,3.00
2018-08-24T03:50:22.730Z,3.53
2018-08-24T03:55:44.353Z,3.70
2018-08-24T04:01:04.998Z,2.80
2018-08-24T04:06:25.517Z,2.63
2018-08-24T04:11:46.406Z,2.67
2018-08-24T04:17:11.891Z,3.47
2018-08-24T04:22:32.647Z,3.83
2018-08-24T04:27:53.202Z,3.87
2018-08-24T04:33:14.019Z,3.80
2018-08-24T04:38:34.703Z,3.97
2018-08-24T04:43:55.787Z,3.33
2018-08-24T04:49:16.295Z,2.70
2018-08-24T04:54:36.806Z,3.33
2018-08-24T04:59:57.417Z,2.30
2018-08-24T05:05:18.205Z,3.50
2018-08-24T05:10:39.655Z,3.87
2018-08-24T05:16:00.508Z,4.30
2018-08-24T05:21:21.224Z,3.93
2018-08-24T05:26:41.771Z,3.03
2018-08-24T05:32:02.289Z,2.37
2018-08-24T05:37:26.003Z,3.20
2018-08-24T05:42:46.731Z,3.97
2018-08-24T05:48:07.332Z,3.00
2018-08-24T05:53:27.856Z,2.03
2018-08-24T05:58:48.438Z,2.57
2018-08-24T06:04:08.994Z,3.00
2018-08-24T06:09:29.692Z,3.00
2018-08-24T06:14:50.274Z,3.63
2018-08-24T06:20:10.797Z,2.57
2018-08-24T06:25:31.534Z,2.70
2018-08-24T06:30:52.091Z,3.23
2018-08-24T06:36:12.930Z,2.40
2018-08-24T06:41:33.469Z,1.90
2018-08-24T06:46:54.296Z,2.27
2018-08-24T06:52:15.515Z,2.30
2018-08-24T06:57:36.055Z,3.30
2018-08-24T07:02:56.601Z,3.33
2018-08-24T07:08:17.328Z,2.17
2018-08-24T07:13:37.974Z,3.17
2018-08-24T07:18:58.526Z,3.40
2018-08-24T07:24:19.088Z,2.63
2018-08-24T07:29:39.973Z,4.83
2018-08-24T07:35:00.679Z,2.37
2018-08-24T07:40:21.496Z,2.80
2018-08-24T07:45:42.087Z,3.53
2018-08-24T07:51:03.095Z,3.30
2018-08-24T07:56:23.679Z,2.73
2018-08-24T08:01:44.431Z,2.10
2018-08-24T08:07:05.426Z,3.03
2018-08-24T08:12:26.094Z,4.33
2018-08-24T08:17:46.963Z,3.13
2018-08-24T08:23:07.675Z,4.13
2018-08-24T08:28:28.222Z,4.03
2018-08-24T08:33:48.742Z,3.63
2018-08-24T08:39:11.488Z,3.90
2018-08-24T08:44:31.998Z,3.23
2018-08-24T08:49:52.813Z,5.17
2018-08-24T08:55:13.346Z,4.43
2018-08-24T09:00:34.075Z,5.30
2018-08-24T09:05:54.713Z,4.80
2018-08-24T09:11:15.259Z,3.37
2018-08-24T09:16:36.247Z,3.27
2018-08-24T09:22:01.791Z,5.20
2018-08-24T09:27:27.350Z,4.63
2018-08-24T09:32:47.932Z,4.53
2018-08-24T09:38:08.507Z,3.87
2018-08-24T09:43:34.000Z,4.30
2018-08-24T09:49:00.133Z,3.90
2018-08-24T09:54:20.673Z,2.37
2018-08-24T09:59:41.477Z,6.37
2018-08-24T10:05:07.296Z,3.60
2018-08-24T10:10:27.922Z,6.30
2018-08-24T10:15:48.948Z,4.83
2018-08-24T10:21:10.538Z,3.37
2018-08-24T10:26:32.814Z,5.70
2018-08-24T10:31:53.627Z,4.13
2018-08-24T10:37:14.150Z,4.13
2018-08-24T10:42:34.825Z,3.67
2018-08-24T10:47:55.367Z,4.47
2018-08-24T10:53:16.463Z,7.43
2018-08-24T10:58:37.066Z,26.23
2018-08-24T11:03:57.632Z,27.20
2018-08-24T11:09:19.575Z,19.93
2018-08-24T11:14:41.958Z,20.27
2018-08-24T11:20:02.696Z,20.60
2018-08-24T11:25:23.660Z,16.57
2018-08-24T11:30:44.519Z,14.43
2018-08-24T11:36:05.620Z,12.53
2018-08-24T11:41:26.276Z,11.73
2018-08-24T11:46:46.889Z,11.47
2018-08-24T11:52:07.434Z,11.17
2018-08-24T11:57:28.066Z,8.27
2018-08-24T12:02:48.657Z,7.97
2018-08-24T12:08:10.336Z,6.60
2018-08-24T12:13:30.906Z,5.40
2018-08-24T12:18:51.804Z,6.37
2018-08-24T12:24:12.393Z,5.37
2018-08-24T12:29:33.028Z,4.87
2018-08-24T12:34:53.944Z,6.00
2018-08-24T12:40:15.233Z,2.70
2018-08-24T12:45:35.871Z,3.87
2018-08-24T12:50:57.126Z,2.90
2018-08-24T12:56:20.610Z,3.47
2018-08-24T13:01:42.061Z,4.60
2018-08-24T13:07:02.662Z,4.33
2018-08-24T13:12:23.230Z,5.67
2018-08-24T13:17:44.066Z,2.80
2018-08-24T13:23:04.631Z,2.57
2018-08-24T13:28:25.341Z,3.43
2018-08-24T13:33:45.884Z,3.47
2018-08-24T13:39:08.859Z,4.53
2018-08-24T13:44:29.735Z,4.03
2018-08-24T13:49:50.793Z,4.20
2018-08-24T13:55:11.944Z,3.13
2018-08-24T14:00:32.737Z,3.10
2018-08-24T14:05:54.673Z,3.10
2018-08-24T14:11:15.396Z,3.60
2018-08-24T14:16:37.045Z,3.80
2018-08-24T14:21:57.731Z,3.87
2018-08-24T14:27:18.341Z,3.57
2018-08-24T14:32:38.952Z,3.87
2018-08-24T14:37:59.635Z,3.80
2018-08-24T14:43:20.363Z,4.13
2018-08-24T14:48:41.025Z,2.87
2018-08-24T14:54:01.751Z,3.07
2018-08-24T14:59:22.316Z,3.77
2018-08-24T15:04:42.871Z,4.23
2018-08-24T15:10:03.464Z,3.73
2018-08-24T15:15:24.211Z,3.13
2018-08-24T15:20:44.904Z,4.23
2018-08-24T15:26:05.718Z,5.67
2018-08-24T15:31:26.458Z,3.43
2018-08-24T15:36:47.039Z,4.10
2018-08-24T15:42:09.564Z,3.53
2018-08-24T15:47:30.443Z,4.10
2018-08-24T15:52:51.068Z,5.00
2018-08-24T15:58:11.616Z,5.07
2018-08-24T16:03:32.359Z,8.67
2018-08-24T16:08:53.338Z,5.83
2018-08-24T16:14:14.063Z,3.10
2018-08-24T16:19:34.921Z,5.93
2018-08-24T16:24:55.762Z,4.50
2018-08-24T16:30:17.032Z,3.87
2018-08-24T16:35:37.960Z,3.00
2018-08-24T16:40:58.821Z,4.43
2018-08-24T16:46:19.358Z,4.73
2018-08-24T16:51:39.987Z,4.03
2018-08-24T16:57:00.655Z,3.90
2018-08-24T17:02:23.210Z,3.27
2018-08-24T17:07:43.903Z,4.70
2018-08-24T17:13:04.684Z,4.63
2018-08-24T17:18:25.709Z,4.13
2018-08-24T17:23:46.291Z,3.17
2018-08-24T17:29:06.998Z,4.27
2018-08-24T17:34:28.053Z,3.97
2018-08-24T17:39:48.570Z,3.33
2018-08-24T17:45:09.807Z,5.53
2018-08-24T17:50:30.379Z,3.20
2018-08-24T17:55:51.001Z,2.83
2018-08-24T18:01:11.694Z,3.33
2018-08-24T18:06:31.785Z,5.40
2018-08-24T18:11:51.863Z,4.90
2018-08-24T18:17:11.983Z,3.67
2018-08-24T18:22:32.172Z,4.10
2018-08-24T18:27:52.427Z,4.80
2018-08-24T18:33:12.764Z,3.50
2018-08-24T18:38:33.056Z,3.50
2018-08-24T18:43:53.092Z,4.50
2018-08-24T18:49:13.205Z,3.43
2018-08-24T18:54:33.911Z,3.63
2018-08-24T18:59:54.530Z,4.00
2018-08-24T19:05:15.082Z,3.43
2018-08-24T19:10:40.588Z,2.67
2018-08-24T19:16:01.371Z,3.00
2018-08-24T19:21:27.542Z,2.93
2018-08-24T19:26:48.333Z,2.40
2018-08-24T19:32:09.296Z,3.23
2018-08-24T19:37:29.862Z,2.77
2018-08-24T19:42:50.407Z,3.77
2018-08-24T19:48:16.035Z,3.87
2018-08-24T19:53:36.632Z,2.87
2018-08-24T19:59:02.888Z,6.13
2018-08-24T20:04:23.430Z,4.17
2018-08-24T20:09:50.318Z,4.03
2018-08-24T20:15:16.099Z,4.77
2018-08-24T20:20:36.742Z,4.63
2018-08-24T20:25:57.580Z,3.53
2018-08-24T20:31:18.677Z,2.50
2018-08-24T20:36:39.382Z,4.53
2018-08-24T20:42:00.225Z,3.60
2018-08-24T20:47:20.892Z,4.37
2018-08-24T20:52:42.075Z,4.27
2018-08-24T20:58:02.742Z,4.00
2018-08-24T21:03:24.534Z,4.00
2018-08-24T21:08:45.233Z,4.80
2018-08-24T21:14:05.783Z,4.10
2018-08-24T21:19:26.571Z,5.30
2018-08-24T21:24:47.360Z,2.50
2018-08-24T21:30:13.614Z,3.93
2018-08-24T21:35:39.985Z,4.97
2018-08-24T21:41:06.212Z,3.23
2018-08-24T21:46:26.896Z,2.70
2018-08-24T21:51:47.452Z,4.23
2018-08-24T21:57:07.989Z,3.30
2018-08-24T22:02:28.655Z,4.83
2018-08-24T22:07:49.420Z,3.73
2018-08-24T22:13:09.950Z,3.33
2018-08-24T22:18:30.496Z,3.50
2018-08-24T22:23:51.227Z,3.33
2018-08-24T22:29:11.923Z,3.73
2018-08-24T22:34:32.565Z,3.83
2018-08-24T22:44:20.099Z,1.53
2018-08-24T22:49:41.170Z,1.63
2018-08-24T22:55:02.567Z,1.27
2018-08-24T23:00:23.608Z,2.70
2018-08-24T23:19:20.690Z,3.40
2018-08-24T23:24:43.062Z,3.43
2018-08-24T23:30:05.111Z,3.70
2018-08-24T23:35:27.278Z,3.00
2018-08-24T23:40:49.053Z,2.37
2018-08-24T23:46:11.244Z,3.53
2018-08-24T23:51:35.216Z,3.73
2018-08-24T23:56:57.249Z,3.43
